sensor_id;sensor_type;location;lat;lon;timestamp;temperature;humidity
42617;DHT22;28250;52.320;0.360;2023-03-20T00:02:10;7.70;99.90
42617;DHT22;28250;52.320;0.360;2023-03-20T00:04:43;7.70;99.90
42617;DHT22;28250;52.320;0.360;2023-03-20T00:07:09;7.70;99.90
42617;DHT22;28250;52.320;0.360;2023-03-20T00:09:37;7.70;99.90
42617;DHT22;28250;52.320;0.360;2023-03-20T00:12:04;7.70;99.90
42617;DHT22;28250;52.320;0.360;2023-03-20T00:14:30;7.70;99.90
42617;DHT22;28250;52.320;0.360;2023-03-20T00:16:56;7.70;99.90
42617;DHT22;28250;52.320;0.360;2023-03-20T00:19:23;7.70;99.90
42617;DHT22;28250;52.320;0.360;2023-03-20T00:21:51;7.70;99.90
42617;DHT22;28250;52.320;0.360;2023-03-20T00:24:20;7.70;99.90
42617;DHT22;28250;52.320;0.360;2023-03-20T00:26:48;7.70;99.90
42617;DHT22;28250;52.320;0.360;2023-03-20T00:29:22;7.70;99.90
42617;DHT22;28250;52.320;0.360;2023-03-20T00:31:50;7.70;99.90
42617;DHT22;28250;52.320;0.360;2023-03-20T00:34:18;7.60;99.90
42617;DHT22;28250;52.320;0.360;2023-03-20T00:36:48;7.60;99.90
42617;DHT22;28250;52.320;0.360;2023-03-20T00:39:14;7.60;99.90
42617;DHT22;28250;52.320;0.360;2023-03-20T00:46:43;7.60;99.90
42617;DHT22;28250;52.320;0.360;2023-03-20T00:49:11;7.60;99.90
42617;DHT22;28250;52.320;0.360;2023-03-20T00:51:37;7.50;99.90
42617;DHT22;28250;52.320;0.360;2023-03-20T00:54:04;7.50;99.90
42617;DHT22;28250;52.320;0.360;2023-03-20T00:56:39;7.50;99.90
42617;DHT22;28250;52.320;0.360;2023-03-20T00:59:11;7.50;99.90
42617;DHT22;28250;52.320;0.360;2023-03-20T01:01:42;7.50;99.90
42617;DHT22;28250;52.320;0.360;2023-03-20T01:04:12;7.50;99.90
42617;DHT22;28250;52.320;0.360;2023-03-20T01:06:40;7.50;99.90
42617;DHT22;28250;52.320;0.360;2023-03-20T01:09:06;7.50;99.90
42617;DHT22;28250;52.320;0.360;2023-03-20T01:11:32;7.50;99.90
42617;DHT22;28250;52.320;0.360;2023-03-20T01:13:58;7.40;99.90
42617;DHT22;28250;52.320;0.360;2023-03-20T01:16:25;7.40;99.90
42617;DHT22;28250;52.320;0.360;2023-03-20T01:18:52;7.40;99.90
42617;DHT22;28250;52.320;0.360;2023-03-20T01:21:18;7.40;99.90
42617;DHT22;28250;52.320;0.360;2023-03-20T01:23:45;7.40;99.90
42617;DHT22;28250;52.320;0.360;2023-03-20T01:26:17;7.40;99.90
42617;DHT22;28250;52.320;0.360;2023-03-20T01:28:48;7.30;99.90
42617;DHT22;28250;52.320;0.360;2023-03-20T01:31:17;7.30;99.90
42617;DHT22;28250;52.320;0.360;2023-03-20T01:33:43;7.30;99.90
42617;DHT22;28250;52.320;0.360;2023-03-20T01:36:10;7.30;99.90
42617;DHT22;28250;52.320;0.360;2023-03-20T01:38:40;7.30;99.90
42617;DHT22;28250;52.320;0.360;2023-03-20T01:41:11;7.30;99.90
42617;DHT22;28250;52.320;0.360;2023-03-20T01:43:40;7.30;99.90
42617;DHT22;28250;52.320;0.360;2023-03-20T01:48:54;7.30;99.90
42617;DHT22;28250;52.320;0.360;2023-03-20T01:51:32;7.30;99.90
42617;DHT22;28250;52.320;0.360;2023-03-20T01:54:09;7.30;99.90
42617;DHT22;28250;52.320;0.360;2023-03-20T01:59:16;7.30;99.90
42617;DHT22;28250;52.320;0.360;2023-03-20T02:01:46;7.30;99.90
42617;DHT22;28250;52.320;0.360;2023-03-20T02:04:12;7.30;99.90
42617;DHT22;28250;52.320;0.360;2023-03-20T02:06:48;7.30;99.90
42617;DHT22;28250;52.320;0.360;2023-03-20T02:09:17;7.30;99.90
42617;DHT22;28250;52.320;0.360;2023-03-20T02:11:45;7.30;99.90
42617;DHT22;28250;52.320;0.360;2023-03-20T02:14:12;7.30;99.90
42617;DHT22;28250;52.320;0.360;2023-03-20T02:16:47;7.40;99.90
42617;DHT22;28250;52.320;0.360;2023-03-20T02:28:32;7.40;99.90
42617;DHT22;28250;52.320;0.360;2023-03-20T02:42:55;7.40;99.90
42617;DHT22;28250;52.320;0.360;2023-03-20T02:45:28;7.40;99.90
42617;DHT22;28250;52.320;0.360;2023-03-20T02:50:52;7.40;99.90
42617;DHT22;28250;52.320;0.360;2023-03-20T02:55:47;7.40;99.90
42617;DHT22;28250;52.320;0.360;2023-03-20T03:00:59;7.50;99.90
42617;DHT22;28250;52.320;0.360;2023-03-20T03:03:32;7.50;99.90
42617;DHT22;28250;52.320;0.360;2023-03-20T03:06:05;7.50;99.90
42617;DHT22;28250;52.320;0.360;2023-03-20T03:08:35;7.50;99.90
42617;DHT22;28250;52.320;0.360;2023-03-20T03:11:06;7.50;99.90
42617;DHT22;28250;52.320;0.360;2023-03-20T03:13:35;7.50;99.90
42617;DHT22;28250;52.320;0.360;2023-03-20T03:16:08;7.50;99.90
42617;DHT22;28250;52.320;0.360;2023-03-20T03:18:36;7.40;99.90
42617;DHT22;28250;52.320;0.360;2023-03-20T03:21:05;7.40;99.90
42617;DHT22;28250;52.320;0.360;2023-03-20T03:23:42;7.30;99.90
42617;DHT22;28250;52.320;0.360;2023-03-20T03:26:12;7.40;99.90
42617;DHT22;28250;52.320;0.360;2023-03-20T03:28:43;7.40;99.90
42617;DHT22;28250;52.320;0.360;2023-03-20T03:31:15;7.40;99.90
42617;DHT22;28250;52.320;0.360;2023-03-20T03:33:47;7.40;99.90
42617;DHT22;28250;52.320;0.360;2023-03-20T03:41:41;7.40;99.90
42617;DHT22;28250;52.320;0.360;2023-03-20T03:46:52;7.40;99.90
42617;DHT22;28250;52.320;0.360;2023-03-20T03:49:22;7.40;99.90
42617;DHT22;28250;52.320;0.360;2023-03-20T03:51:53;7.50;99.90
42617;DHT22;28250;52.320;0.360;2023-03-20T03:54:23;7.40;99.90
42617;DHT22;28250;52.320;0.360;2023-03-20T03:57:12;7.50;99.90
42617;DHT22;28250;52.320;0.360;2023-03-20T03:59:42;7.50;99.90
42617;DHT22;28250;52.320;0.360;2023-03-20T04:02:14;7.50;99.90
42617;DHT22;28250;52.320;0.360;2023-03-20T04:04:42;7.50;99.90
42617;DHT22;28250;52.320;0.360;2023-03-20T04:07:12;7.50;99.90
42617;DHT22;28250;52.320;0.360;2023-03-20T04:09:38;7.50;99.90
42617;DHT22;28250;52.320;0.360;2023-03-20T04:12:05;7.50;99.90
42617;DHT22;28250;52.320;0.360;2023-03-20T04:14:31;7.40;99.90
42617;DHT22;28250;52.320;0.360;2023-03-20T04:16:58;7.50;99.90
42617;DHT22;28250;52.320;0.360;2023-03-20T04:19:24;7.40;99.90
42617;DHT22;28250;52.320;0.360;2023-03-20T04:21:49;7.50;99.90
42617;DHT22;28250;52.320;0.360;2023-03-20T04:24:15;7.50;99.90
42617;DHT22;28250;52.320;0.360;2023-03-20T04:26:42;7.50;99.90
42617;DHT22;28250;52.320;0.360;2023-03-20T04:29:08;7.60;99.90
42617;DHT22;28250;52.320;0.360;2023-03-20T04:31:49;7.60;99.90
42617;DHT22;28250;52.320;0.360;2023-03-20T04:34:21;7.60;99.90
42617;DHT22;28250;52.320;0.360;2023-03-20T04:37:03;7.60;99.90
42617;DHT22;28250;52.320;0.360;2023-03-20T04:39:42;7.60;99.90
42617;DHT22;28250;52.320;0.360;2023-03-20T04:42:10;7.70;99.90
42617;DHT22;28250;52.320;0.360;2023-03-20T04:44:36;7.70;99.90
42617;DHT22;28250;52.320;0.360;2023-03-20T04:47:02;7.70;99.90
42617;DHT22;28250;52.320;0.360;2023-03-20T04:49:29;7.70;99.90
42617;DHT22;28250;52.320;0.360;2023-03-20T04:51:55;7.70;99.90
42617;DHT22;28250;52.320;0.360;2023-03-20T04:54:34;7.60;99.90
42617;DHT22;28250;52.320;0.360;2023-03-20T04:57:00;7.60;99.90
42617;DHT22;28250;52.320;0.360;2023-03-20T04:59:26;7.70;99.90
42617;DHT22;28250;52.320;0.360;2023-03-20T05:01:52;7.70;99.90
42617;DHT22;28250;52.320;0.360;2023-03-20T05:04:20;7.70;99.90
42617;DHT22;28250;52.320;0.360;2023-03-20T05:06:46;7.70;99.90
42617;DHT22;28250;52.320;0.360;2023-03-20T05:09:15;7.80;99.90
42617;DHT22;28250;52.320;0.360;2023-03-20T05:11:41;7.80;99.90
42617;DHT22;28250;52.320;0.360;2023-03-20T05:14:30;7.80;99.90
42617;DHT22;28250;52.320;0.360;2023-03-20T05:17:15;7.90;99.90
42617;DHT22;28250;52.320;0.360;2023-03-20T05:20:01;7.90;99.90
42617;DHT22;28250;52.320;0.360;2023-03-20T05:22:50;7.80;99.90
42617;DHT22;28250;52.320;0.360;2023-03-20T05:25:39;7.70;99.90
42617;DHT22;28250;52.320;0.360;2023-03-20T05:28:32;7.60;99.90
42617;DHT22;28250;52.320;0.360;2023-03-20T05:31:27;7.60;99.90
42617;DHT22;28250;52.320;0.360;2023-03-20T05:34:16;7.50;99.90
42617;DHT22;28250;52.320;0.360;2023-03-20T05:37:20;7.50;99.90
42617;DHT22;28250;52.320;0.360;2023-03-20T05:40:00;7.50;99.90
42617;DHT22;28250;52.320;0.360;2023-03-20T05:42:36;7.40;99.90
42617;DHT22;28250;52.320;0.360;2023-03-20T05:45:20;7.40;99.90
42617;DHT22;28250;52.320;0.360;2023-03-20T05:47:46;7.40;99.90
42617;DHT22;28250;52.320;0.360;2023-03-20T05:50:30;7.40;99.90
42617;DHT22;28250;52.320;0.360;2023-03-20T05:53:05;7.40;99.90
42617;DHT22;28250;52.320;0.360;2023-03-20T05:55:52;7.40;99.90
42617;DHT22;28250;52.320;0.360;2023-03-20T05:58:56;7.40;99.90
42617;DHT22;28250;52.320;0.360;2023-03-20T06:01:45;7.40;99.90
42617;DHT22;28250;52.320;0.360;2023-03-20T06:04:26;7.40;99.90
42617;DHT22;28250;52.320;0.360;2023-03-20T06:07:08;7.40;99.90
42617;DHT22;28250;52.320;0.360;2023-03-20T06:09:35;7.40;99.90
42617;DHT22;28250;52.320;0.360;2023-03-20T06:12:05;7.50;99.90
42617;DHT22;28250;52.320;0.360;2023-03-20T06:14:31;7.50;99.90
42617;DHT22;28250;52.320;0.360;2023-03-20T06:17:00;7.50;99.90
42617;DHT22;28250;52.320;0.360;2023-03-20T06:19:26;7.50;99.90
42617;DHT22;28250;52.320;0.360;2023-03-20T06:21:52;7.60;99.90
42617;DHT22;28250;52.320;0.360;2023-03-20T06:24:20;7.60;99.90
42617;DHT22;28250;52.320;0.360;2023-03-20T06:26:46;7.60;99.90
42617;DHT22;28250;52.320;0.360;2023-03-20T06:29:12;7.60;99.90
42617;DHT22;28250;52.320;0.360;2023-03-20T06:31:39;7.70;99.90
42617;DHT22;28250;52.320;0.360;2023-03-20T06:34:08;7.70;99.90
42617;DHT22;28250;52.320;0.360;2023-03-20T06:36:39;7.80;99.90
42617;DHT22;28250;52.320;0.360;2023-03-20T06:39:12;7.80;99.90
42617;DHT22;28250;52.320;0.360;2023-03-20T06:41:39;7.80;99.90
42617;DHT22;28250;52.320;0.360;2023-03-20T06:44:07;7.90;99.90
42617;DHT22;28250;52.320;0.360;2023-03-20T06:47:11;7.90;99.90
42617;DHT22;28250;52.320;0.360;2023-03-20T06:49:37;7.90;99.90
42617;DHT22;28250;52.320;0.360;2023-03-20T06:52:04;8.00;99.90
42617;DHT22;28250;52.320;0.360;2023-03-20T06:54:32;8.00;99.90
42617;DHT22;28250;52.320;0.360;2023-03-20T06:56:58;8.10;99.90
42617;DHT22;28250;52.320;0.360;2023-03-20T06:59:24;8.10;99.90
42617;DHT22;28250;52.320;0.360;2023-03-20T07:01:55;8.10;99.90
42617;DHT22;28250;52.320;0.360;2023-03-20T07:04:21;8.20;99.90
42617;DHT22;28250;52.320;0.360;2023-03-20T07:06:51;8.20;99.90
42617;DHT22;28250;52.320;0.360;2023-03-20T07:09:17;8.30;99.90
42617;DHT22;28250;52.320;0.360;2023-03-20T07:11:43;8.30;99.90
42617;DHT22;28250;52.320;0.360;2023-03-20T07:14:09;8.40;99.90
42617;DHT22;28250;52.320;0.360;2023-03-20T07:16:44;8.40;99.90
42617;DHT22;28250;52.320;0.360;2023-03-20T07:19:10;8.40;99.90
42617;DHT22;28250;52.320;0.360;2023-03-20T07:21:40;8.40;99.90
42617;DHT22;28250;52.320;0.360;2023-03-20T07:24:06;8.40;99.90
42617;DHT22;28250;52.320;0.360;2023-03-20T07:26:32;8.50;99.90
42617;DHT22;28250;52.320;0.360;2023-03-20T07:28:58;8.50;99.90
42617;DHT22;28250;52.320;0.360;2023-03-20T07:31:26;8.50;99.90
42617;DHT22;28250;52.320;0.360;2023-03-20T07:34:10;8.60;99.90
42617;DHT22;28250;52.320;0.360;2023-03-20T07:36:38;8.60;99.90
42617;DHT22;28250;52.320;0.360;2023-03-20T07:39:04;8.60;99.90
42617;DHT22;28250;52.320;0.360;2023-03-20T07:41:31;8.60;99.90
42617;DHT22;28250;52.320;0.360;2023-03-20T07:44:07;8.70;99.90
42617;DHT22;28250;52.320;0.360;2023-03-20T07:46:45;8.70;99.90
42617;DHT22;28250;52.320;0.360;2023-03-20T07:49:15;8.80;99.90
42617;DHT22;28250;52.320;0.360;2023-03-20T07:51:45;8.80;99.90
42617;DHT22;28250;52.320;0.360;2023-03-20T07:54:12;8.80;99.90
42617;DHT22;28250;52.320;0.360;2023-03-20T07:56:38;8.90;99.90
42617;DHT22;28250;52.320;0.360;2023-03-20T07:59:04;8.90;99.90
42617;DHT22;28250;52.320;0.360;2023-03-20T08:01:30;8.90;99.90
42617;DHT22;28250;52.320;0.360;2023-03-20T08:03:55;8.90;99.90
42617;DHT22;28250;52.320;0.360;2023-03-20T08:06:21;9.00;99.90
42617;DHT22;28250;52.320;0.360;2023-03-20T08:08:47;9.00;99.90
42617;DHT22;28250;52.320;0.360;2023-03-20T08:11:16;9.10;99.90
42617;DHT22;28250;52.320;0.360;2023-03-20T08:13:42;9.10;99.90
42617;DHT22;28250;52.320;0.360;2023-03-20T08:16:08;9.10;99.90
42617;DHT22;28250;52.320;0.360;2023-03-20T08:18:34;9.10;99.90
42617;DHT22;28250;52.320;0.360;2023-03-20T08:21:00;9.20;99.90
42617;DHT22;28250;52.320;0.360;2023-03-20T08:23:26;9.20;99.90
42617;DHT22;28250;52.320;0.360;2023-03-20T08:25:52;9.30;99.90
42617;DHT22;28250;52.320;0.360;2023-03-20T08:28:18;9.30;99.90
42617;DHT22;28250;52.320;0.360;2023-03-20T08:30:45;9.40;99.90
42617;DHT22;28250;52.320;0.360;2023-03-20T08:33:11;9.40;99.90
42617;DHT22;28250;52.320;0.360;2023-03-20T08:35:38;9.40;99.90
42617;DHT22;28250;52.320;0.360;2023-03-20T08:38:04;9.50;99.90
42617;DHT22;28250;52.320;0.360;2023-03-20T08:40:30;9.50;99.90
42617;DHT22;28250;52.320;0.360;2023-03-20T08:42:56;9.50;99.90
42617;DHT22;28250;52.320;0.360;2023-03-20T08:45:22;9.60;99.90
42617;DHT22;28250;52.320;0.360;2023-03-20T08:47:52;9.60;99.90
42617;DHT22;28250;52.320;0.360;2023-03-20T08:50:18;9.60;99.90
42617;DHT22;28250;52.320;0.360;2023-03-20T08:52:44;9.60;99.90
42617;DHT22;28250;52.320;0.360;2023-03-20T08:55:11;9.70;99.90
42617;DHT22;28250;52.320;0.360;2023-03-20T08:57:38;9.70;99.90
42617;DHT22;28250;52.320;0.360;2023-03-20T09:00:05;9.80;99.90
42617;DHT22;28250;52.320;0.360;2023-03-20T09:02:32;9.80;99.90
42617;DHT22;28250;52.320;0.360;2023-03-20T09:04:58;9.90;99.90
42617;DHT22;28250;52.320;0.360;2023-03-20T09:07:24;9.90;99.90
42617;DHT22;28250;52.320;0.360;2023-03-20T09:09:50;9.90;99.90
42617;DHT22;28250;52.320;0.360;2023-03-20T09:12:16;9.90;99.90
42617;DHT22;28250;52.320;0.360;2023-03-20T09:14:43;9.90;99.90
42617;DHT22;28250;52.320;0.360;2023-03-20T09:17:09;10.00;99.90
42617;DHT22;28250;52.320;0.360;2023-03-20T09:19:35;10.00;99.90
42617;DHT22;28250;52.320;0.360;2023-03-20T09:22:04;10.00;99.90
42617;DHT22;28250;52.320;0.360;2023-03-20T09:24:30;10.00;99.90
42617;DHT22;28250;52.320;0.360;2023-03-20T09:26:58;10.10;99.90
42617;DHT22;28250;52.320;0.360;2023-03-20T09:29:25;10.10;99.90
42617;DHT22;28250;52.320;0.360;2023-03-20T09:31:52;10.20;99.90
42617;DHT22;28250;52.320;0.360;2023-03-20T09:34:18;10.20;99.90
42617;DHT22;28250;52.320;0.360;2023-03-20T09:36:44;10.30;99.90
42617;DHT22;28250;52.320;0.360;2023-03-20T09:39:10;10.30;99.90
42617;DHT22;28250;52.320;0.360;2023-03-20T09:41:36;10.30;99.90
42617;DHT22;28250;52.320;0.360;2023-03-20T09:44:08;10.30;99.90
42617;DHT22;28250;52.320;0.360;2023-03-20T09:49:27;10.40;99.90
42617;DHT22;28250;52.320;0.360;2023-03-20T09:51:59;10.40;99.90
42617;DHT22;28250;52.320;0.360;2023-03-20T09:54:34;10.50;99.90
42617;DHT22;28250;52.320;0.360;2023-03-20T09:57:02;10.50;99.90
42617;DHT22;28250;52.320;0.360;2023-03-20T09:59:28;10.50;99.90
42617;DHT22;28250;52.320;0.360;2023-03-20T10:01:59;10.50;99.90
42617;DHT22;28250;52.320;0.360;2023-03-20T10:04:31;10.50;99.90
42617;DHT22;28250;52.320;0.360;2023-03-20T10:06:58;10.60;99.90
42617;DHT22;28250;52.320;0.360;2023-03-20T10:09:25;10.70;99.90
42617;DHT22;28250;52.320;0.360;2023-03-20T10:11:57;10.70;99.90
42617;DHT22;28250;52.320;0.360;2023-03-20T10:15:02;10.70;99.90
42617;DHT22;28250;52.320;0.360;2023-03-20T10:17:44;10.70;99.90
42617;DHT22;28250;52.320;0.360;2023-03-20T10:20:32;10.70;99.90
42617;DHT22;28250;52.320;0.360;2023-03-20T10:23:06;10.80;99.90
42617;DHT22;28250;52.320;0.360;2023-03-20T10:25:39;10.90;99.90
42617;DHT22;28250;52.320;0.360;2023-03-20T10:28:12;11.00;99.90
42617;DHT22;28250;52.320;0.360;2023-03-20T10:41:21;11.50;99.90
42617;DHT22;28250;52.320;0.360;2023-03-20T10:43:50;11.60;99.90
42617;DHT22;28250;52.320;0.360;2023-03-20T10:46:21;11.70;99.90
42617;DHT22;28250;52.320;0.360;2023-03-20T10:51:16;12.00;99.90
42617;DHT22;28250;52.320;0.360;2023-03-20T10:53:54;12.10;99.90
42617;DHT22;28250;52.320;0.360;2023-03-20T10:56:28;12.20;99.90
42617;DHT22;28250;52.320;0.360;2023-03-20T10:58:58;12.20;99.90
42617;DHT22;28250;52.320;0.360;2023-03-20T11:01:30;12.20;99.90
42617;DHT22;28250;52.320;0.360;2023-03-20T11:03:56;12.30;99.90
42617;DHT22;28250;52.320;0.360;2023-03-20T11:06:28;12.40;99.90
42617;DHT22;28250;52.320;0.360;2023-03-20T11:08:56;12.70;99.90
42617;DHT22;28250;52.320;0.360;2023-03-20T11:11:36;13.00;99.90
42617;DHT22;28250;52.320;0.360;2023-03-20T11:14:13;13.20;99.90
42617;DHT22;28250;52.320;0.360;2023-03-20T11:16:45;13.40;99.90
42617;DHT22;28250;52.320;0.360;2023-03-20T11:19:13;13.40;99.90
42617;DHT22;28250;52.320;0.360;2023-03-20T11:21:50;13.40;99.90
42617;DHT22;28250;52.320;0.360;2023-03-20T11:24:23;13.40;99.90
42617;DHT22;28250;52.320;0.360;2023-03-20T11:27:06;13.60;99.90
42617;DHT22;28250;52.320;0.360;2023-03-20T11:29:34;13.70;99.90
42617;DHT22;28250;52.320;0.360;2023-03-20T11:35:08;13.80;99.90
42617;DHT22;28250;52.320;0.360;2023-03-20T11:38:15;13.60;99.90
42617;DHT22;28250;52.320;0.360;2023-03-20T11:40:42;13.60;99.90
42617;DHT22;28250;52.320;0.360;2023-03-20T11:43:10;13.70;99.90
42617;DHT22;28250;52.320;0.360;2023-03-20T11:45:41;13.60;99.90
42617;DHT22;28250;52.320;0.360;2023-03-20T11:48:19;13.60;99.90
42617;DHT22;28250;52.320;0.360;2023-03-20T11:50:48;13.70;99.90
42617;DHT22;28250;52.320;0.360;2023-03-20T11:56:02;13.70;99.90
42617;DHT22;28250;52.320;0.360;2023-03-20T11:58:28;13.60;99.90
42617;DHT22;28250;52.320;0.360;2023-03-20T12:00:54;13.50;99.90
42617;DHT22;28250;52.320;0.360;2023-03-20T12:03:39;13.40;99.90
42617;DHT22;28250;52.320;0.360;2023-03-20T12:06:27;13.50;99.90
42617;DHT22;28250;52.320;0.360;2023-03-20T12:09:09;13.60;99.90
42617;DHT22;28250;52.320;0.360;2023-03-20T12:11:52;13.60;99.90
42617;DHT22;28250;52.320;0.360;2023-03-20T12:14:23;13.80;99.90
42617;DHT22;28250;52.320;0.360;2023-03-20T12:16:52;14.00;99.90
42617;DHT22;28250;52.320;0.360;2023-03-20T12:19:25;14.10;99.90
42617;DHT22;28250;52.320;0.360;2023-03-20T12:22:02;14.00;99.90
42617;DHT22;28250;52.320;0.360;2023-03-20T12:24:40;13.90;99.90
42617;DHT22;28250;52.320;0.360;2023-03-20T12:29:49;14.00;99.90
42617;DHT22;28250;52.320;0.360;2023-03-20T12:32:25;14.20;99.90
42617;DHT22;28250;52.320;0.360;2023-03-20T12:35:37;14.30;99.90
42617;DHT22;28250;52.320;0.360;2023-03-20T12:37:44;14.30;99.90
42617;DHT22;28250;52.320;0.360;2023-03-20T12:40:14;14.20;99.90
42617;DHT22;28250;52.320;0.360;2023-03-20T12:42:47;14.10;99.90
42617;DHT22;28250;52.320;0.360;2023-03-20T12:45:22;14.00;99.90
42617;DHT22;28250;52.320;0.360;2023-03-20T12:50:32;14.10;99.90
42617;DHT22;28250;52.320;0.360;2023-03-20T12:55:49;14.30;99.90
42617;DHT22;28250;52.320;0.360;2023-03-20T13:01:16;14.10;99.90
42617;DHT22;28250;52.320;0.360;2023-03-20T13:06:39;14.00;99.90
42617;DHT22;28250;52.320;0.360;2023-03-20T13:12:16;13.80;99.90
42617;DHT22;28250;52.320;0.360;2023-03-20T13:20:28;13.70;99.90
42617;DHT22;28250;52.320;0.360;2023-03-20T13:23:09;13.70;99.90
42617;DHT22;28250;52.320;0.360;2023-03-20T13:28:23;13.60;99.90
42617;DHT22;28250;52.320;0.360;2023-03-20T13:31:01;13.60;99.90
42617;DHT22;28250;52.320;0.360;2023-03-20T13:39:43;13.60;99.90
42617;DHT22;28250;52.320;0.360;2023-03-20T13:42:21;13.60;99.90
42617;DHT22;28250;52.320;0.360;2023-03-20T13:45:00;13.50;99.90
42617;DHT22;28250;52.320;0.360;2023-03-20T13:47:31;13.50;99.90
42617;DHT22;28250;52.320;0.360;2023-03-20T13:50:13;13.50;99.90
42617;DHT22;28250;52.320;0.360;2023-03-20T13:52:59;13.60;99.90
42617;DHT22;28250;52.320;0.360;2023-03-20T13:56:11;13.60;99.90
42617;DHT22;28250;52.320;0.360;2023-03-20T14:01:39;13.80;99.90
42617;DHT22;28250;52.320;0.360;2023-03-20T14:04:10;14.10;99.90
42617;DHT22;28250;52.320;0.360;2023-03-20T14:09:22;14.80;99.90
42617;DHT22;28250;52.320;0.360;2023-03-20T14:12:14;14.90;99.90
42617;DHT22;28250;52.320;0.360;2023-03-20T14:14:51;15.00;99.90
42617;DHT22;28250;52.320;0.360;2023-03-20T14:17:20;15.10;99.90
42617;DHT22;28250;52.320;0.360;2023-03-20T14:19:50;15.00;99.90
42617;DHT22;28250;52.320;0.360;2023-03-20T14:22:18;14.80;99.90
42617;DHT22;28250;52.320;0.360;2023-03-20T14:24:56;14.60;99.90
42617;DHT22;28250;52.320;0.360;2023-03-20T14:27:25;14.70;99.90
42617;DHT22;28250;52.320;0.360;2023-03-20T14:29:52;14.70;99.90
42617;DHT22;28250;52.320;0.360;2023-03-20T14:34:48;14.70;99.90
42617;DHT22;28250;52.320;0.360;2023-03-20T14:40:00;14.80;99.90
42617;DHT22;28250;52.320;0.360;2023-03-20T14:43:02;14.80;99.90
42617;DHT22;28250;52.320;0.360;2023-03-20T14:48:08;15.00;99.90
42617;DHT22;28250;52.320;0.360;2023-03-20T14:50:48;14.90;99.90
42617;DHT22;28250;52.320;0.360;2023-03-20T14:53:18;14.90;99.90
42617;DHT22;28250;52.320;0.360;2023-03-20T14:55:57;14.80;99.90
42617;DHT22;28250;52.320;0.360;2023-03-20T15:01:13;14.80;99.90
42617;DHT22;28250;52.320;0.360;2023-03-20T15:03:45;14.70;99.90
42617;DHT22;28250;52.320;0.360;2023-03-20T15:06:15;14.70;99.90
42617;DHT22;28250;52.320;0.360;2023-03-20T15:08:43;14.90;99.90
42617;DHT22;28250;52.320;0.360;2023-03-20T15:11:12;14.80;99.90
42617;DHT22;28250;52.320;0.360;2023-03-20T15:13:38;14.70;99.90
42617;DHT22;28250;52.320;0.360;2023-03-20T15:16:09;14.60;99.90
42617;DHT22;28250;52.320;0.360;2023-03-20T15:18:43;14.60;99.90
42617;DHT22;28250;52.320;0.360;2023-03-20T15:21:18;14.60;99.90
42617;DHT22;28250;52.320;0.360;2023-03-20T15:23:46;14.70;99.90
42617;DHT22;28250;52.320;0.360;2023-03-20T15:26:13;14.80;99.90
42617;DHT22;28250;52.320;0.360;2023-03-20T15:28:40;14.90;99.90
42617;DHT22;28250;52.320;0.360;2023-03-20T15:33:51;15.10;99.90
42617;DHT22;28250;52.320;0.360;2023-03-20T15:36:17;15.10;99.90
42617;DHT22;28250;52.320;0.360;2023-03-20T15:38:46;15.10;99.90
42617;DHT22;28250;52.320;0.360;2023-03-20T15:41:22;15.10;99.90
42617;DHT22;28250;52.320;0.360;2023-03-20T15:43:51;15.00;99.90
42617;DHT22;28250;52.320;0.360;2023-03-20T15:46:17;15.00;99.90
42617;DHT22;28250;52.320;0.360;2023-03-20T15:48:47;14.90;99.90
42617;DHT22;28250;52.320;0.360;2023-03-20T15:51:14;15.00;99.90
42617;DHT22;28250;52.320;0.360;2023-03-20T15:53:40;14.90;99.90
42617;DHT22;28250;52.320;0.360;2023-03-20T15:56:11;14.80;99.90
42617;DHT22;28250;52.320;0.360;2023-03-20T15:58:40;14.80;99.90
42617;DHT22;28250;52.320;0.360;2023-03-20T16:01:08;14.80;99.90
42617;DHT22;28250;52.320;0.360;2023-03-20T16:03:34;14.80;99.90
42617;DHT22;28250;52.320;0.360;2023-03-20T16:06:02;14.60;99.90
42617;DHT22;28250;52.320;0.360;2023-03-20T16:08:33;14.60;99.90
42617;DHT22;28250;52.320;0.360;2023-03-20T16:11:03;14.50;99.90
42617;DHT22;28250;52.320;0.360;2023-03-20T16:13:36;14.50;99.90
42617;DHT22;28250;52.320;0.360;2023-03-20T16:16:04;14.50;99.90
42617;DHT22;28250;52.320;0.360;2023-03-20T16:18:32;14.40;99.90
42617;DHT22;28250;52.320;0.360;2023-03-20T16:21:04;14.30;99.90
42617;DHT22;28250;52.320;0.360;2023-03-20T16:23:34;14.30;99.90
42617;DHT22;28250;52.320;0.360;2023-03-20T16:26:03;14.30;99.90
42617;DHT22;28250;52.320;0.360;2023-03-20T16:28:34;14.40;99.90
42617;DHT22;28250;52.320;0.360;2023-03-20T16:31:07;14.30;99.90
42617;DHT22;28250;52.320;0.360;2023-03-20T16:33:37;14.20;99.90
42617;DHT22;28250;52.320;0.360;2023-03-20T16:36:04;14.20;99.90
42617;DHT22;28250;52.320;0.360;2023-03-20T16:38:31;14.00;99.90
42617;DHT22;28250;52.320;0.360;2023-03-20T16:41:15;14.00;99.90
42617;DHT22;28250;52.320;0.360;2023-03-20T16:43:50;13.90;99.90
42617;DHT22;28250;52.320;0.360;2023-03-20T16:46:17;13.80;99.90
42617;DHT22;28250;52.320;0.360;2023-03-20T16:48:46;13.80;99.90
42617;DHT22;28250;52.320;0.360;2023-03-20T16:51:16;13.70;99.90
42617;DHT22;28250;52.320;0.360;2023-03-20T16:53:47;13.70;99.90
42617;DHT22;28250;52.320;0.360;2023-03-20T16:56:22;13.60;99.90
42617;DHT22;28250;52.320;0.360;2023-03-20T16:58:50;13.50;99.90
42617;DHT22;28250;52.320;0.360;2023-03-20T17:01:17;13.40;99.90
42617;DHT22;28250;52.320;0.360;2023-03-20T17:03:47;13.40;99.90
42617;DHT22;28250;52.320;0.360;2023-03-20T17:08:48;13.40;99.90
42617;DHT22;28250;52.320;0.360;2023-03-20T17:11:38;13.40;99.90
42617;DHT22;28250;52.320;0.360;2023-03-20T17:14:02;13.40;99.90
42617;DHT22;28250;52.320;0.360;2023-03-20T17:16:29;13.30;99.90
42617;DHT22;28250;52.320;0.360;2023-03-20T17:18:59;13.30;99.90
42617;DHT22;28250;52.320;0.360;2023-03-20T17:21:27;13.30;99.90
42617;DHT22;28250;52.320;0.360;2023-03-20T17:23:54;13.30;99.90
42617;DHT22;28250;52.320;0.360;2023-03-20T17:26:20;13.20;99.90
42617;DHT22;28250;52.320;0.360;2023-03-20T17:28:46;13.10;99.90
42617;DHT22;28250;52.320;0.360;2023-03-20T17:31:12;13.10;99.90
42617;DHT22;28250;52.320;0.360;2023-03-20T17:33:39;13.00;99.90
42617;DHT22;28250;52.320;0.360;2023-03-20T17:36:11;13.00;99.90
42617;DHT22;28250;52.320;0.360;2023-03-20T17:38:55;13.00;99.90
42617;DHT22;28250;52.320;0.360;2023-03-20T17:41:22;12.90;99.90
42617;DHT22;28250;52.320;0.360;2023-03-20T17:43:49;12.90;99.90
42617;DHT22;28250;52.320;0.360;2023-03-20T17:46:29;12.80;99.90
42617;DHT22;28250;52.320;0.360;2023-03-20T17:49:02;12.80;99.90
42617;DHT22;28250;52.320;0.360;2023-03-20T17:51:30;12.70;99.90
42617;DHT22;28250;52.320;0.360;2023-03-20T17:53:57;12.60;99.90
42617;DHT22;28250;52.320;0.360;2023-03-20T17:56:24;12.60;99.90
42617;DHT22;28250;52.320;0.360;2023-03-20T17:59:00;12.60;99.90
42617;DHT22;28250;52.320;0.360;2023-03-20T18:01:27;12.50;99.90
42617;DHT22;28250;52.320;0.360;2023-03-20T18:03:53;12.50;99.90
42617;DHT22;28250;52.320;0.360;2023-03-20T18:08:52;12.50;99.90
42617;DHT22;28250;52.320;0.360;2023-03-20T18:11:19;12.40;99.90